Flight Track Log - Related Links

Times and Time Zones

All times are in EDT time to prevent confusion due to time zone crossing. See the SWA1718 flight status page for this flight to view local times or setup timezone preferences in your user account.

Time Position Orientation Groundspeed Altitude Reporting Facility
EDT Latitude Longitude Course Direction KTS MPH feet Rate Location/Type
Tue 07:17:50 PM 39.8739 -104.3656 93° East 296 341 12,000  Level Denver Center
Tue 07:18:53 PM 39.8728 -104.2228 91° East 323 372 15,000 2,758 Climbing Denver Center
Tue 07:19:54 PM 39.8722 -104.0817 90° East 363 418 17,700 2,341 Climbing Denver Center
Tue 07:20:56 PM 39.8708 -103.9467 91° East 372 428 19,800 1,935 Climbing Denver Center
Tue 07:21:58 PM 39.8775 -103.8039 86° East 395 455 21,700 1,887 Climbing Denver Center
Tue 07:23:00 PM 39.8922 -103.6619 82° East 389 448 23,700 1,588 Climbing Denver Center
Tue 07:24:14 PM 39.9094 -103.5064 82° East 424 488 25,300 1,544 Climbing Denver Center
Tue 07:25:16 PM 39.9336 -103.2917 82° East 445 512 27,200 1,694 Climbing Denver Center
Tue 07:26:18 PM 39.9519 -103.1264 82° East 455 524 28,800 1,306 Climbing Denver Center
Tue 07:27:20 PM 39.9719 -102.9539 81° East 470 541 29,900 838 Climbing Denver Center
Tue 07:28:34 PM 39.9919 -102.7756 82° East 489 563 30,700 1,103 Climbing Denver Center
Tue 07:29:36 PM 40.0114 -102.5825 82° East 508 585 32,400 1,968 Climbing Denver Center
Tue 07:30:39 PM 40.0342 -102.3600 82° East 488 562 34,800 1,248 Climbing Denver Center
Tue 07:31:41 PM 40.0506 -102.1942 83° East 486 559 35,000 48 Climbing Denver Center
Tue 07:32:43 PM 40.0717 -101.9939 82° East 499 574 34,900 -48 Descending Denver Center
Tue 07:33:45 PM 40.0892 -101.8228 82° East 498 573 34,900  Level Denver Center
Tue 07:34:47 PM 40.1081 -101.6233 83° East 498 573 34,900  Level Denver Center
Tue 07:35:49 PM 40.1250 -101.4511 83° East 501 577 34,900  Level Denver Center
Tue 07:37:03 PM 40.1431 -101.2494 83° East 502 578 34,900 44 Level Denver Center
Tue 07:38:05 PM 40.1628 -101.0467 83° East 506 582 35,000 48 Climbing Denver Center
Tue 07:39:07 PM 40.1814 -100.8414 83° East 511 588 35,000  Level Denver Center
Tue 07:40:09 PM 40.1978 -100.6664 83° East 511 588 35,000  Level Denver Center
Tue 07:41:11 PM 40.2069 -100.4589 87° East 513 590 35,000  Level Denver Center
Tue 07:42:13 PM 40.2097 -100.2808 89° East 513 590 35,000  Level Denver Center
Tue 07:43:15 PM 40.2117 -100.0714 89° East 518 596 35,000  Level Denver Center
Tue 07:44:17 PM 40.2142 -99.8756 89° East 518 596 35,000  Level Denver Center
Tue 07:45:19 PM 40.2172 -99.6842 89° East 525 604 35,000  Level Denver Center
Tue 07:46:21 PM 40.2192 -99.4958 89° East 522 601 35,000  Level Denver Center
Tue 07:47:23 PM 40.2192 -99.3067 90° East 522 601 35,000  Level Denver Center
Tue 07:48:25 PM 40.2211 -99.1181 89° East 521 600 35,000  Level Denver Center
Tue 07:49:28 PM 40.2222 -98.8914 90° East 521 600 35,000  Level Denver Center
Tue 07:50:16 PM 40.2219 -98.7408 90° East 521 600 35,000  Level Minneapolis Center
Tue 07:51:17 PM 40.2219 -98.5903 90° East 521 600 35,000  Level Minneapolis Center
Tue 07:52:19 PM 40.2222 -98.3614 90° East 525 604 35,000  Level Minneapolis Center
Tue 07:53:21 PM 40.2219 -98.1708 90° East 526 605 35,000  Level Minneapolis Center
Tue 07:54:35 PM 40.2217 -97.9811 90° East 524 603 35,000  Level Minneapolis Center
Tue 07:55:37 PM 40.2197 -97.7108 90° East 530 610 35,000  Level Minneapolis Center
Tue 07:56:39 PM 40.2183 -97.5192 90° East 530 610 35,000  Level Minneapolis Center
Tue 07:57:41 PM 40.2158 -97.3258 91° East 532 612 35,000  Level Minneapolis Center
Tue 07:58:43 PM 40.2147 -97.1436 90° East 531 611 35,000  Level Minneapolis Center
Tue 07:59:45 PM 40.2125 -96.9506 91° East 532 612 35,000  Level Minneapolis Center
Tue 08:00:47 PM 40.2086 -96.7211 91° East 530 610 35,000  Level Minneapolis Center
Tue 08:01:55 PM 40.2058 -96.5292 91° East 531 611 35,000  Level Minneapolis Center
Tue 08:02:57 PM 40.2025 -96.3369 91° East 531 611 35,000  Level Minneapolis Center
Tue 08:03:59 PM 40.2197 -96.1022 84° East 545 627 35,000  Level Minneapolis Center
Tue 08:05:01 PM 40.2553 -95.9092 76° East 550 633 35,000  Level Minneapolis Center
Tue 08:06:02 PM 40.2919 -95.7139 76° East 554 638 35,000  Level Minneapolis Center
Tue 08:07:04 PM 40.3264 -95.5222 77° East 548 631 35,000  Level Minneapolis Center
Tue 08:08:06 PM 40.3617 -95.3289 76° East 547 629 35,000  Level Minneapolis Center
Tue 08:09:08 PM 40.3958 -95.1353 77° East 546 628 35,000  Level Minneapolis Center
Tue 08:10:10 PM 40.4369 -94.9050 77° East 544 626 35,000  Level Minneapolis Center
Tue 08:11:11 PM 40.4708 -94.7097 77° East 547 629 35,000  Level Minneapolis Center
Tue 08:12:13 PM 40.5056 -94.5094 77° East 545 627 35,000  Level Minneapolis Center
Tue 08:13:15 PM 40.5369 -94.3169 78° East 544 626 35,000  Level Minneapolis Center
Tue 08:14:17 PM 40.5714 -94.1225 77° East 546 628 35,000  Level Minneapolis Center
Tue 08:15:19 PM 40.6031 -93.9286 78° East 546 628 35,000  Level Minneapolis Center
Tue 08:16:21 PM 40.6306 -93.7344 79° East 544 626 35,000  Level Minneapolis Center
Tue 08:17:23 PM 40.6572 -93.5408 80° East 542 624 35,000  Level Minneapolis Center
Tue 08:18:25 PM 40.6922 -93.3058 79° East 544 626 35,000  Level Minneapolis Center
Tue 08:19:27 PM 40.7208 -93.1100 79° East 544 626 35,000  Level Minneapolis Center
Tue 08:20:28 PM 40.7483 -92.9142 79° East 544 626 35,000  Level Minneapolis Center
Tue 08:21:26 PM 40.7747 -92.7175 80° East 541 623 35,000 -50 Level Chicago Center
Tue 08:22:28 PM 40.8019 -92.5217 80° East 541 623 34,900 -532 Descending Chicago Center
Tue 08:23:30 PM 40.8281 -92.3250 80° East 544 626 33,900 -1,887 Descending Chicago Center
Tue 08:24:32 PM 40.8542 -92.1308 80° East 539 620 31,000 -2,371 Descending Chicago Center
Tue 08:25:34 PM 40.8792 -91.9392 80° East 532 612 29,000 -968 Descending Chicago Center
Tue 08:26:36 PM 40.9033 -91.7489 80° East 527 606 29,000  Level Chicago Center
Tue 08:27:38 PM 40.9339 -91.5225 80° East 524 603 29,000  Level Chicago Center
Tue 08:28:39 PM 40.9564 -91.3339 81° East 522 601 29,000  Level Chicago Center
Tue 08:29:41 PM 40.9817 -91.1353 80° East 522 601 29,000 -726 Level Chicago Center
Tue 08:30:43 PM 41.0025 -90.9517 81° East 508 585 27,500 -1,839 Descending Chicago Center
Tue 08:31:45 PM 41.0239 -90.7786 81° East 483 556 25,200 -1,694 Descending Chicago Center
Tue 08:32:47 PM 41.0433 -90.6136 81° East 456 525 24,000 -581 Descending Chicago Center
Tue 08:33:49 PM 41.0617 -90.4586 81° East 429 494 24,000 -1,016 Level Chicago Center
Tue 08:34:51 PM 41.0811 -90.2933 81° East 449 517 21,900 -2,081 Descending Chicago Center
Tue 08:35:53 PM 41.1236 -90.1389 70° East 444 511 19,700 -2,098 Descending Chicago Center
Tue 08:36:54 PM 41.1453 -89.9847 79° East 430 495 17,600 -2,049 Descending Chicago Center
Tue 08:37:56 PM 41.1817 -89.8150 74° East 400 460 15,500 -1,258 Descending Chicago Center
Tue 08:38:58 PM 41.2139 -89.6836 72° East 373 429 15,000 -919 Descending Chicago Center
Tue 08:40:00 PM 41.2469 -89.5528 71° East 371 427 13,600 -1,258 Descending Chicago Center
Tue 08:41:02 PM 41.2786 -89.4244 72° East 366 421 12,400 -1,258 Descending Chicago Center
Tue 08:42:04 PM 41.3078 -89.3058 72° East 341 392 11,000 -677 Descending Chicago Center
Tue 08:43:06 PM 41.3400 -89.1725 72° East 331 381 11,000 -387 Level Chicago Center
Tue 08:44:08 PM 41.3686 -89.0558 72° East 333 383 10,200 -871 Descending Chicago Center
Tue 08:45:10 PM 41.3964 -88.9417 72° East 328 377 9,200 -585 Descending Chicago Center
Tue 08:46:11 PM 41.4233 -88.8289 72° East 325 374 9,000 -293 Descending Chicago Center
Tue 08:47:13 PM 41.4506 -88.7175 72° East 319 367 8,600 -968 Descending Chicago Center
Tue 08:48:15 PM 41.4775 -88.6083 72° East 313 360 7,000 -1,258 Descending Chicago Center
Tue 08:49:17 PM 41.5072 -88.4817 73° East 301 346 6,000 -774 Descending Chicago Center
Tue 08:50:19 PM 41.5331 -88.3828 71° East 287 330 5,400 -484 Descending Chicago Center
Tue 08:51:21 PM 41.5572 -88.2844 72° East 279 321 5,000 -194 Descending Chicago Center
Tue 08:52:23 PM 41.5597 -88.1831 88° East 276 318 5,000  Level Chicago Center
Tue 08:53:25 PM 41.5650 -88.0842 86° East 269 310 5,000  Level Chicago Center
Tue 08:54:27 PM 41.5728 -87.9842 84° East 268 308 5,000 -390 Level Chicago Center
Tue 08:55:28 PM 41.5911 -87.8853 76° East 271 312 4,200 -488 Descending Chicago Center
Tue 08:56:30 PM 41.5914 -87.7867 90° East 267 307 4,000 -242 Descending Chicago Center
Tue 08:57:32 PM 41.5919 -87.6736 90° East 261 300 3,700 -484 Descending Chicago Center
Tue 08:58:34 PM 41.6103 -87.6069 70° East 227 261 3,000 -339 Descending Chicago Center
Tue 08:59:36 PM 41.6475 -87.5781 30° Northeast 192 221 3,000  Level Chicago Center
Tue 09:00:38 PM 41.6833 -87.6111 325° Northwest 170 196 3,000 -194 Level Chicago Center
Tue 09:01:40 PM 41.7150 -87.6525 316° Northwest 164 189 2,600 -677 Descending Chicago Center
Tue 09:02:42 PM 41.7483 -87.7022 312° West 157 181 1,600 -823 Descending Chicago Center
Tue 09:03:44 PM 41.7719 -87.7342 315° West 142 163 900 -677 Descending Chicago Center
Tue 09:05:00 PM 41.7833 -87.7500 North  Level FlightAware Approximate
Tue 09:12:00 PM 41.7860 -87.7524 North  Level Estimated

Login

Don't have an account? Register now (free) for customized features, flight alerts, and more!